sensor_id;sensor_type;location;lat;lon;timestamp;P1;durP1;ratioP1;P2;durP2;ratioP2
25639;SDS011;13497;48.322;16.204;2023-05-07T00:01:49;1.57;;;0.37;;
25639;SDS011;13497;48.322;16.204;2023-05-07T00:04:15;0.83;;;0.50;;
25639;SDS011;13497;48.322;16.204;2023-05-07T00:06:40;0.53;;;0.30;;
25639;SDS011;13497;48.322;16.204;2023-05-07T00:09:06;0.20;;;0.20;;
25639;SDS011;13497;48.322;16.204;2023-05-07T00:11:32;0.45;;;0.38;;
25639;SDS011;13497;48.322;16.204;2023-05-07T00:13:58;0.68;;;0.30;;
25639;SDS011;13497;48.322;16.204;2023-05-07T00:16:24;0.30;;;0.30;;
25639;SDS011;13497;48.322;16.204;2023-05-07T00:18:50;0.67;;;0.50;;
25639;SDS011;13497;48.322;16.204;2023-05-07T00:21:17;0.45;;;0.35;;
25639;SDS011;13497;48.322;16.204;2023-05-07T00:23:43;0.20;;;0.20;;
25639;SDS011;13497;48.322;16.204;2023-05-07T00:26:08;0.60;;;0.40;;
25639;SDS011;13497;48.322;16.204;2023-05-07T00:28:34;0.53;;;0.30;;
25639;SDS011;13497;48.322;16.204;2023-05-07T00:31:00;0.27;;;0.20;;
25639;SDS011;13497;48.322;16.204;2023-05-07T00:33:25;2.20;;;1.03;;
25639;SDS011;13497;48.322;16.204;2023-05-07T00:35:51;3.15;;;1.38;;
25639;SDS011;13497;48.322;16.204;2023-05-07T00:38:19;0.82;;;0.73;;
25639;SDS011;13497;48.322;16.204;2023-05-07T00:40:44;0.70;;;0.50;;
25639;SDS011;13497;48.322;16.204;2023-05-07T00:43:11;0.47;;;0.47;;
25639;SDS011;13497;48.322;16.204;2023-05-07T00:45:37;0.40;;;0.40;;
25639;SDS011;13497;48.322;16.204;2023-05-07T00:48:04;1.02;;;0.28;;
25639;SDS011;13497;48.322;16.204;2023-05-07T00:50:30;0.22;;;0.22;;
25639;SDS011;13497;48.322;16.204;2023-05-07T00:52:57;0.30;;;0.30;;
25639;SDS011;13497;48.322;16.204;2023-05-07T00:55:24;0.45;;;0.35;;
25639;SDS011;13497;48.322;16.204;2023-05-07T00:57:50;0.23;;;0.23;;
25639;SDS011;13497;48.322;16.204;2023-05-07T01:00:16;0.35;;;0.35;;
25639;SDS011;13497;48.322;16.204;2023-05-07T01:02:43;0.63;;;0.40;;
25639;SDS011;13497;48.322;16.204;2023-05-07T01:05:09;1.05;;;0.50;;
25639;SDS011;13497;48.322;16.204;2023-05-07T01:07:38;0.28;;;0.28;;
25639;SDS011;13497;48.322;16.204;2023-05-07T01:10:05;0.40;;;0.30;;
25639;SDS011;13497;48.322;16.204;2023-05-07T01:12:32;0.98;;;0.57;;
25639;SDS011;13497;48.322;16.204;2023-05-07T01:14:59;0.25;;;0.20;;
25639;SDS011;13497;48.322;16.204;2023-05-07T01:17:25;0.32;;;0.32;;
25639;SDS011;13497;48.322;16.204;2023-05-07T01:19:51;0.40;;;0.40;;
25639;SDS011;13497;48.322;16.204;2023-05-07T01:25:10;0.38;;;0.38;;
25639;SDS011;13497;48.322;16.204;2023-05-07T01:27:36;0.30;;;0.30;;
25639;SDS011;13497;48.322;16.204;2023-05-07T01:30:04;0.50;;;0.40;;
25639;SDS011;13497;48.322;16.204;2023-05-07T01:32:45;0.38;;;0.38;;
25639;SDS011;13497;48.322;16.204;2023-05-07T01:35:20;0.40;;;0.32;;
25639;SDS011;13497;48.322;16.204;2023-05-07T01:37:47;0.50;;;0.40;;
25639;SDS011;13497;48.322;16.204;2023-05-07T01:40:14;1.13;;;0.55;;
25639;SDS011;13497;48.322;16.204;2023-05-07T01:42:41;0.65;;;0.30;;
25639;SDS011;13497;48.322;16.204;2023-05-07T01:45:08;0.65;;;0.40;;
25639;SDS011;13497;48.322;16.204;2023-05-07T01:47:34;1.02;;;0.60;;
25639;SDS011;13497;48.322;16.204;2023-05-07T01:50:02;0.73;;;0.40;;
25639;SDS011;13497;48.322;16.204;2023-05-07T01:52:30;0.98;;;0.63;;
25639;SDS011;13497;48.322;16.204;2023-05-07T01:54:56;0.68;;;0.40;;
25639;SDS011;13497;48.322;16.204;2023-05-07T01:57:22;0.63;;;0.40;;
25639;SDS011;13497;48.322;16.204;2023-05-07T01:59:47;0.40;;;0.27;;
25639;SDS011;13497;48.322;16.204;2023-05-07T02:02:13;0.70;;;0.40;;
25639;SDS011;13497;48.322;16.204;2023-05-07T02:04:39;2.30;;;0.53;;
25639;SDS011;13497;48.322;16.204;2023-05-07T02:07:04;0.30;;;0.27;;
25639;SDS011;13497;48.322;16.204;2023-05-07T02:09:30;0.80;;;0.37;;
25639;SDS011;13497;48.322;16.204;2023-05-07T02:11:55;0.27;;;0.27;;
25639;SDS011;13497;48.322;16.204;2023-05-07T02:14:21;0.90;;;0.70;;
25639;SDS011;13497;48.322;16.204;2023-05-07T02:16:47;1.03;;;0.60;;
25639;SDS011;13497;48.322;16.204;2023-05-07T02:19:12;0.80;;;0.40;;
25639;SDS011;13497;48.322;16.204;2023-05-07T02:21:38;0.70;;;0.70;;
25639;SDS011;13497;48.322;16.204;2023-05-07T02:24:04;0.50;;;0.50;;
25639;SDS011;13497;48.322;16.204;2023-05-07T02:26:30;3.55;;;0.60;;
25639;SDS011;13497;48.322;16.204;2023-05-07T02:28:56;0.52;;;0.30;;
25639;SDS011;13497;48.322;16.204;2023-05-07T02:31:22;0.40;;;0.40;;
25639;SDS011;13497;48.322;16.204;2023-05-07T02:33:47;0.30;;;0.30;;
25639;SDS011;13497;48.322;16.204;2023-05-07T02:36:13;0.50;;;0.50;;
25639;SDS011;13497;48.322;16.204;2023-05-07T02:38:39;0.30;;;0.30;;
25639;SDS011;13497;48.322;16.204;2023-05-07T02:41:04;0.87;;;0.53;;
25639;SDS011;13497;48.322;16.204;2023-05-07T02:43:30;0.50;;;0.30;;
25639;SDS011;13497;48.322;16.204;2023-05-07T02:46:05;0.60;;;0.50;;
25639;SDS011;13497;48.322;16.204;2023-05-07T02:50:59;0.68;;;0.52;;
25639;SDS011;13497;48.322;16.204;2023-05-07T02:53:25;1.63;;;0.50;;
25639;SDS011;13497;48.322;16.204;2023-05-07T02:55:52;0.73;;;0.25;;
25639;SDS011;13497;48.322;16.204;2023-05-07T02:58:18;1.00;;;0.52;;
25639;SDS011;13497;48.322;16.204;2023-05-07T03:00:44;0.50;;;0.43;;
25639;SDS011;13497;48.322;16.204;2023-05-07T03:03:10;0.27;;;0.27;;
25639;SDS011;13497;48.322;16.204;2023-05-07T03:05:36;0.43;;;0.43;;
25639;SDS011;13497;48.322;16.204;2023-05-07T03:08:01;2.00;;;0.57;;
25639;SDS011;13497;48.322;16.204;2023-05-07T03:10:28;0.52;;;0.50;;
25639;SDS011;13497;48.322;16.204;2023-05-07T03:12:54;0.47;;;0.40;;
25639;SDS011;13497;48.322;16.204;2023-05-07T03:15:20;0.80;;;0.50;;
25639;SDS011;13497;48.322;16.204;2023-05-07T03:17:46;1.40;;;0.80;;
25639;SDS011;13497;48.322;16.204;2023-05-07T03:20:12;0.57;;;0.43;;
25639;SDS011;13497;48.322;16.204;2023-05-07T03:22:38;0.57;;;0.57;;
25639;SDS011;13497;48.322;16.204;2023-05-07T03:25:04;0.73;;;0.60;;
25639;SDS011;13497;48.322;16.204;2023-05-07T03:27:31;2.08;;;0.82;;
25639;SDS011;13497;48.322;16.204;2023-05-07T03:29:57;0.73;;;0.50;;
25639;SDS011;13497;48.322;16.204;2023-05-07T03:32:23;0.97;;;0.70;;
25639;SDS011;13497;48.322;16.204;2023-05-07T03:34:48;1.13;;;0.60;;
25639;SDS011;13497;48.322;16.204;2023-05-07T03:37:14;0.53;;;0.30;;
25639;SDS011;13497;48.322;16.204;2023-05-07T03:39:40;0.67;;;0.67;;
25639;SDS011;13497;48.322;16.204;2023-05-07T03:42:05;0.93;;;0.67;;
25639;SDS011;13497;48.322;16.204;2023-05-07T03:44:31;0.93;;;0.90;;
25639;SDS011;13497;48.322;16.204;2023-05-07T03:46:57;0.87;;;0.87;;
25639;SDS011;13497;48.322;16.204;2023-05-07T03:49:22;1.10;;;0.70;;
25639;SDS011;13497;48.322;16.204;2023-05-07T03:51:48;0.67;;;0.67;;
25639;SDS011;13497;48.322;16.204;2023-05-07T03:54:14;1.07;;;0.83;;
25639;SDS011;13497;48.322;16.204;2023-05-07T03:56:39;1.70;;;1.10;;
25639;SDS011;13497;48.322;16.204;2023-05-07T03:59:05;2.10;;;1.53;;
25639;SDS011;13497;48.322;16.204;2023-05-07T04:01:30;1.20;;;1.10;;
25639;SDS011;13497;48.322;16.204;2023-05-07T04:03:56;1.27;;;1.17;;
25639;SDS011;13497;48.322;16.204;2023-05-07T04:06:22;1.20;;;1.00;;
25639;SDS011;13497;48.322;16.204;2023-05-07T04:08:48;0.70;;;0.63;;
25639;SDS011;13497;48.322;16.204;2023-05-07T04:11:13;1.77;;;1.40;;
25639;SDS011;13497;48.322;16.204;2023-05-07T04:13:39;1.67;;;1.10;;
25639;SDS011;13497;48.322;16.204;2023-05-07T04:16:05;1.87;;;1.37;;
25639;SDS011;13497;48.322;16.204;2023-05-07T04:18:31;0.77;;;0.73;;
25639;SDS011;13497;48.322;16.204;2023-05-07T04:20:57;1.43;;;0.83;;
25639;SDS011;13497;48.322;16.204;2023-05-07T04:23:22;2.22;;;1.08;;
25639;SDS011;13497;48.322;16.204;2023-05-07T04:25:48;3.00;;;0.87;;
25639;SDS011;13497;48.322;16.204;2023-05-07T04:28:14;1.65;;;1.30;;
25639;SDS011;13497;48.322;16.204;2023-05-07T04:30:39;0.93;;;0.87;;
25639;SDS011;13497;48.322;16.204;2023-05-07T04:33:06;2.15;;;1.10;;
25639;SDS011;13497;48.322;16.204;2023-05-07T04:35:31;1.30;;;1.20;;
25639;SDS011;13497;48.322;16.204;2023-05-07T04:37:57;1.33;;;1.00;;
25639;SDS011;13497;48.322;16.204;2023-05-07T04:40:23;3.03;;;1.47;;
25639;SDS011;13497;48.322;16.204;2023-05-07T04:42:48;1.20;;;0.93;;
25639;SDS011;13497;48.322;16.204;2023-05-07T04:45:14;1.53;;;1.43;;
25639;SDS011;13497;48.322;16.204;2023-05-07T04:47:40;1.47;;;1.17;;
25639;SDS011;13497;48.322;16.204;2023-05-07T04:50:08;2.20;;;1.43;;
25639;SDS011;13497;48.322;16.204;2023-05-07T04:52:35;1.98;;;1.52;;
25639;SDS011;13497;48.322;16.204;2023-05-07T04:55:01;3.70;;;2.00;;
25639;SDS011;13497;48.322;16.204;2023-05-07T04:57:27;3.13;;;1.90;;
25639;SDS011;13497;48.322;16.204;2023-05-07T04:59:53;3.43;;;2.67;;
25639;SDS011;13497;48.322;16.204;2023-05-07T05:02:19;4.70;;;2.35;;
25639;SDS011;13497;48.322;16.204;2023-05-07T05:04:45;3.77;;;2.00;;
25639;SDS011;13497;48.322;16.204;2023-05-07T05:07:10;2.97;;;1.77;;
25639;SDS011;13497;48.322;16.204;2023-05-07T05:09:36;4.50;;;2.00;;
25639;SDS011;13497;48.322;16.204;2023-05-07T05:12:02;3.80;;;2.40;;
25639;SDS011;13497;48.322;16.204;2023-05-07T05:14:27;6.72;;;2.55;;
25639;SDS011;13497;48.322;16.204;2023-05-07T05:16:53;5.30;;;2.42;;
25639;SDS011;13497;48.322;16.204;2023-05-07T05:19:19;4.13;;;2.80;;
25639;SDS011;13497;48.322;16.204;2023-05-07T05:21:45;4.27;;;2.47;;
25639;SDS011;13497;48.322;16.204;2023-05-07T05:24:10;2.47;;;2.07;;
25639;SDS011;13497;48.322;16.204;2023-05-07T05:26:36;2.83;;;2.07;;
25639;SDS011;13497;48.322;16.204;2023-05-07T05:29:02;4.37;;;2.17;;
25639;SDS011;13497;48.322;16.204;2023-05-07T05:31:27;3.70;;;2.70;;
25639;SDS011;13497;48.322;16.204;2023-05-07T05:33:53;6.37;;;2.97;;
25639;SDS011;13497;48.322;16.204;2023-05-07T05:36:19;2.97;;;2.47;;
25639;SDS011;13497;48.322;16.204;2023-05-07T05:38:44;3.93;;;2.60;;
25639;SDS011;13497;48.322;16.204;2023-05-07T05:41:11;5.50;;;2.85;;
25639;SDS011;13497;48.322;16.204;2023-05-07T05:43:36;4.97;;;2.67;;
25639;SDS011;13497;48.322;16.204;2023-05-07T05:46:02;6.97;;;2.90;;
25639;SDS011;13497;48.322;16.204;2023-05-07T05:48:29;4.13;;;2.38;;
25639;SDS011;13497;48.322;16.204;2023-05-07T05:50:55;4.78;;;2.78;;
25639;SDS011;13497;48.322;16.204;2023-05-07T05:53:21;3.35;;;2.45;;
25639;SDS011;13497;48.322;16.204;2023-05-07T05:55:46;3.83;;;2.57;;
25639;SDS011;13497;48.322;16.204;2023-05-07T05:58:12;4.80;;;2.90;;
25639;SDS011;13497;48.322;16.204;2023-05-07T06:00:38;2.97;;;2.27;;
25639;SDS011;13497;48.322;16.204;2023-05-07T06:03:03;5.90;;;3.07;;
25639;SDS011;13497;48.322;16.204;2023-05-07T06:05:29;5.30;;;2.47;;
25639;SDS011;13497;48.322;16.204;2023-05-07T06:07:55;5.43;;;2.93;;
25639;SDS011;13497;48.322;16.204;2023-05-07T06:10:21;3.95;;;2.13;;
25639;SDS011;13497;48.322;16.204;2023-05-07T06:12:46;4.47;;;2.43;;
25639;SDS011;13497;48.322;16.204;2023-05-07T06:15:13;3.73;;;2.23;;
25639;SDS011;13497;48.322;16.204;2023-05-07T06:17:39;3.10;;;2.58;;
25639;SDS011;13497;48.322;16.204;2023-05-07T06:20:05;2.87;;;2.13;;
25639;SDS011;13497;48.322;16.204;2023-05-07T06:22:31;3.35;;;2.35;;
25639;SDS011;13497;48.322;16.204;2023-05-07T06:24:57;4.53;;;2.27;;
25639;SDS011;13497;48.322;16.204;2023-05-07T06:27:22;9.93;;;3.63;;
25639;SDS011;13497;48.322;16.204;2023-05-07T06:29:48;4.97;;;2.90;;
25639;SDS011;13497;48.322;16.204;2023-05-07T06:32:14;4.15;;;2.97;;
25639;SDS011;13497;48.322;16.204;2023-05-07T06:34:40;6.30;;;3.72;;
25639;SDS011;13497;48.322;16.204;2023-05-07T06:37:06;5.13;;;3.40;;
25639;SDS011;13497;48.322;16.204;2023-05-07T06:39:32;5.10;;;3.10;;
25639;SDS011;13497;48.322;16.204;2023-05-07T06:41:59;6.47;;;3.97;;
25639;SDS011;13497;48.322;16.204;2023-05-07T06:44:25;6.00;;;3.25;;
25639;SDS011;13497;48.322;16.204;2023-05-07T06:46:51;3.97;;;3.10;;
25639;SDS011;13497;48.322;16.204;2023-05-07T06:49:16;4.70;;;3.40;;
25639;SDS011;13497;48.322;16.204;2023-05-07T06:51:43;6.78;;;3.70;;
25639;SDS011;13497;48.322;16.204;2023-05-07T06:54:09;7.53;;;3.75;;
25639;SDS011;13497;48.322;16.204;2023-05-07T06:56:35;5.33;;;3.07;;
25639;SDS011;13497;48.322;16.204;2023-05-07T06:59:01;5.50;;;3.03;;
25639;SDS011;13497;48.322;16.204;2023-05-07T07:01:29;7.32;;;3.60;;
25639;SDS011;13497;48.322;16.204;2023-05-07T07:03:54;5.65;;;3.35;;
25639;SDS011;13497;48.322;16.204;2023-05-07T07:06:20;6.47;;;3.67;;
25639;SDS011;13497;48.322;16.204;2023-05-07T07:08:47;4.93;;;3.63;;
25639;SDS011;13497;48.322;16.204;2023-05-07T07:11:12;5.00;;;3.47;;
25639;SDS011;13497;48.322;16.204;2023-05-07T07:13:38;6.13;;;3.80;;
25639;SDS011;13497;48.322;16.204;2023-05-07T07:18:30;7.60;;;4.22;;
25639;SDS011;13497;48.322;16.204;2023-05-07T07:20:56;4.77;;;2.87;;
25639;SDS011;13497;48.322;16.204;2023-05-07T07:23:21;7.73;;;3.93;;
25639;SDS011;13497;48.322;16.204;2023-05-07T07:25:48;4.57;;;3.07;;
25639;SDS011;13497;48.322;16.204;2023-05-07T07:28:14;5.90;;;3.75;;
25639;SDS011;13497;48.322;16.204;2023-05-07T07:30:40;4.80;;;3.35;;
25639;SDS011;13497;48.322;16.204;2023-05-07T07:33:06;6.30;;;3.33;;
25639;SDS011;13497;48.322;16.204;2023-05-07T07:35:32;5.43;;;3.80;;
25639;SDS011;13497;48.322;16.204;2023-05-07T07:37:57;6.07;;;3.40;;
25639;SDS011;13497;48.322;16.204;2023-05-07T07:40:23;6.03;;;4.03;;
25639;SDS011;13497;48.322;16.204;2023-05-07T07:42:50;8.68;;;4.35;;
25639;SDS011;13497;48.322;16.204;2023-05-07T07:45:16;8.20;;;4.80;;
25639;SDS011;13497;48.322;16.204;2023-05-07T07:47:41;9.00;;;3.80;;
25639;SDS011;13497;48.322;16.204;2023-05-07T07:50:07;6.40;;;4.10;;
25639;SDS011;13497;48.322;16.204;2023-05-07T07:54:59;7.40;;;3.70;;
25639;SDS011;13497;48.322;16.204;2023-05-07T07:57:25;5.90;;;3.67;;
25639;SDS011;13497;48.322;16.204;2023-05-07T07:59:51;6.25;;;3.55;;
25639;SDS011;13497;48.322;16.204;2023-05-07T08:02:17;5.35;;;3.90;;
25639;SDS011;13497;48.322;16.204;2023-05-07T08:04:43;5.00;;;3.13;;
25639;SDS011;13497;48.322;16.204;2023-05-07T08:07:11;3.92;;;3.38;;
25639;SDS011;13497;48.322;16.204;2023-05-07T08:09:37;7.00;;;3.47;;
25639;SDS011;13497;48.322;16.204;2023-05-07T08:12:04;7.22;;;4.07;;
25639;SDS011;13497;48.322;16.204;2023-05-07T08:14:33;6.05;;;4.25;;
25639;SDS011;13497;48.322;16.204;2023-05-07T08:16:59;6.35;;;3.65;;
25639;SDS011;13497;48.322;16.204;2023-05-07T08:19:25;7.40;;;3.72;;
25639;SDS011;13497;48.322;16.204;2023-05-07T08:21:51;4.73;;;3.43;;
25639;SDS011;13497;48.322;16.204;2023-05-07T08:24:17;7.80;;;4.57;;
25639;SDS011;13497;48.322;16.204;2023-05-07T08:26:43;5.88;;;3.20;;
25639;SDS011;13497;48.322;16.204;2023-05-07T08:29:10;8.00;;;4.03;;
25639;SDS011;13497;48.322;16.204;2023-05-07T08:31:36;6.97;;;4.25;;
25639;SDS011;13497;48.322;16.204;2023-05-07T08:34:03;7.53;;;4.10;;
25639;SDS011;13497;48.322;16.204;2023-05-07T08:36:29;4.60;;;3.10;;
25639;SDS011;13497;48.322;16.204;2023-05-07T08:38:55;7.53;;;4.10;;
25639;SDS011;13497;48.322;16.204;2023-05-07T08:41:21;7.27;;;4.37;;
25639;SDS011;13497;48.322;16.204;2023-05-07T08:43:47;5.20;;;3.63;;
25639;SDS011;13497;48.322;16.204;2023-05-07T08:46:20;5.43;;;4.03;;
25639;SDS011;13497;48.322;16.204;2023-05-07T08:48:49;4.82;;;3.03;;
25639;SDS011;13497;48.322;16.204;2023-05-07T08:51:17;3.40;;;2.95;;
25639;SDS011;13497;48.322;16.204;2023-05-07T08:53:44;5.22;;;2.90;;
25639;SDS011;13497;48.322;16.204;2023-05-07T08:56:11;5.03;;;3.00;;
25639;SDS011;13497;48.322;16.204;2023-05-07T08:58:37;5.50;;;3.38;;
25639;SDS011;13497;48.322;16.204;2023-05-07T09:01:04;4.95;;;2.60;;
25639;SDS011;13497;48.322;16.204;2023-05-07T09:03:33;4.68;;;3.13;;
25639;SDS011;13497;48.322;16.204;2023-05-07T09:05:59;4.38;;;3.08;;
25639;SDS011;13497;48.322;16.204;2023-05-07T09:08:28;6.15;;;3.20;;
25639;SDS011;13497;48.322;16.204;2023-05-07T09:10:54;5.22;;;3.08;;
25639;SDS011;13497;48.322;16.204;2023-05-07T09:13:20;6.15;;;3.30;;
25639;SDS011;13497;48.322;16.204;2023-05-07T09:15:46;6.75;;;3.78;;
25639;SDS011;13497;48.322;16.204;2023-05-07T09:18:12;4.65;;;2.90;;
25639;SDS011;13497;48.322;16.204;2023-05-07T09:20:39;4.20;;;2.65;;
25639;SDS011;13497;48.322;16.204;2023-05-07T09:23:06;4.15;;;3.08;;
25639;SDS011;13497;48.322;16.204;2023-05-07T09:25:33;4.45;;;2.67;;
25639;SDS011;13497;48.322;16.204;2023-05-07T09:28:03;4.53;;;3.10;;
25639;SDS011;13497;48.322;16.204;2023-05-07T09:30:31;4.15;;;2.60;;
25639;SDS011;13497;48.322;16.204;2023-05-07T09:32:58;5.20;;;2.58;;
25639;SDS011;13497;48.322;16.204;2023-05-07T09:35:25;3.00;;;2.10;;
25639;SDS011;13497;48.322;16.204;2023-05-07T09:37:58;5.60;;;2.40;;
25639;SDS011;13497;48.322;16.204;2023-05-07T09:40:28;6.03;;;2.35;;
25639;SDS011;13497;48.322;16.204;2023-05-07T09:42:55;3.58;;;2.50;;
25639;SDS011;13497;48.322;16.204;2023-05-07T09:45:21;3.50;;;2.83;;
25639;SDS011;13497;48.322;16.204;2023-05-07T09:47:48;3.28;;;2.22;;
25639;SDS011;13497;48.322;16.204;2023-05-07T09:50:18;4.35;;;2.85;;
25639;SDS011;13497;48.322;16.204;2023-05-07T09:52:46;3.65;;;2.63;;
25639;SDS011;13497;48.322;16.204;2023-05-07T09:57:38;4.75;;;2.85;;
25639;SDS011;13497;48.322;16.204;2023-05-07T10:00:07;3.35;;;2.17;;
25639;SDS011;13497;48.322;16.204;2023-05-07T10:02:34;5.13;;;2.50;;
25639;SDS011;13497;48.322;16.204;2023-05-07T10:05:01;6.38;;;2.85;;
25639;SDS011;13497;48.322;16.204;2023-05-07T10:07:28;3.30;;;2.75;;
25639;SDS011;13497;48.322;16.204;2023-05-07T10:09:55;6.07;;;2.78;;
25639;SDS011;13497;48.322;16.204;2023-05-07T10:12:20;4.38;;;2.53;;
25639;SDS011;13497;48.322;16.204;2023-05-07T10:14:46;5.85;;;3.53;;
25639;SDS011;13497;48.322;16.204;2023-05-07T10:17:13;4.80;;;2.83;;
25639;SDS011;13497;48.322;16.204;2023-05-07T10:19:42;6.28;;;3.20;;
25639;SDS011;13497;48.322;16.204;2023-05-07T10:22:10;4.45;;;2.42;;
25639;SDS011;13497;48.322;16.204;2023-05-07T10:24:37;6.47;;;3.35;;
25639;SDS011;13497;48.322;16.204;2023-05-07T10:27:11;3.85;;;2.58;;
25639;SDS011;13497;48.322;16.204;2023-05-07T10:29:49;4.70;;;2.93;;
25639;SDS011;13497;48.322;16.204;2023-05-07T10:35:32;3.85;;;3.13;;
25639;SDS011;13497;48.322;16.204;2023-05-07T10:38:06;3.88;;;2.35;;
25639;SDS011;13497;48.322;16.204;2023-05-07T10:40:32;6.63;;;2.33;;
25639;SDS011;13497;48.322;16.204;2023-05-07T10:43:07;2.90;;;2.35;;
25639;SDS011;13497;48.322;16.204;2023-05-07T10:45:33;2.90;;;2.20;;
25639;SDS011;13497;48.322;16.204;2023-05-07T10:50:42;4.38;;;2.80;;
25639;SDS011;13497;48.322;16.204;2023-05-07T10:55:44;3.28;;;2.25;;
25639;SDS011;13497;48.322;16.204;2023-05-07T10:58:23;6.30;;;2.40;;
25639;SDS011;13497;48.322;16.204;2023-05-07T11:00:55;3.15;;;2.38;;
25639;SDS011;13497;48.322;16.204;2023-05-07T11:03:27;3.40;;;2.00;;
25639;SDS011;13497;48.322;16.204;2023-05-07T11:06:12;3.70;;;2.40;;
25639;SDS011;13497;48.322;16.204;2023-05-07T11:08:57;3.10;;;1.90;;
25639;SDS011;13497;48.322;16.204;2023-05-07T11:15:02;2.25;;;1.80;;
25639;SDS011;13497;48.322;16.204;2023-05-07T11:17:07;3.30;;;2.40;;
25639;SDS011;13497;48.322;16.204;2023-05-07T11:19:53;3.03;;;1.95;;
25639;SDS011;13497;48.322;16.204;2023-05-07T11:25:04;4.28;;;2.17;;
25639;SDS011;13497;48.322;16.204;2023-05-07T11:27:32;3.67;;;1.73;;
25639;SDS011;13497;48.322;16.204;2023-05-07T11:29:58;5.10;;;2.42;;
25639;SDS011;13497;48.322;16.204;2023-05-07T11:32:27;3.67;;;2.20;;
25639;SDS011;13497;48.322;16.204;2023-05-07T11:34:54;3.00;;;2.28;;
25639;SDS011;13497;48.322;16.204;2023-05-07T11:37:22;3.22;;;2.03;;
25639;SDS011;13497;48.322;16.204;2023-05-07T11:39:49;2.13;;;1.83;;
25639;SDS011;13497;48.322;16.204;2023-05-07T11:44:55;3.20;;;1.58;;
25639;SDS011;13497;48.322;16.204;2023-05-07T11:47:20;5.38;;;1.65;;
25639;SDS011;13497;48.322;16.204;2023-05-07T11:49:50;2.88;;;2.00;;
25639;SDS011;13497;48.322;16.204;2023-05-07T11:52:17;2.20;;;1.77;;
25639;SDS011;13497;48.322;16.204;2023-05-07T11:54:54;3.60;;;2.00;;
25639;SDS011;13497;48.322;16.204;2023-05-07T11:57:22;3.42;;;2.00;;
25639;SDS011;13497;48.322;16.204;2023-05-07T11:59:52;3.03;;;2.28;;
25639;SDS011;13497;48.322;16.204;2023-05-07T12:02:18;4.05;;;1.98;;
25639;SDS011;13497;48.322;16.204;2023-05-07T12:04:44;1.73;;;1.45;;
25639;SDS011;13497;48.322;16.204;2023-05-07T12:07:13;2.05;;;1.75;;
25639;SDS011;13497;48.322;16.204;2023-05-07T12:09:40;2.38;;;1.58;;
25639;SDS011;13497;48.322;16.204;2023-05-07T12:14:32;1.98;;;1.48;;
25639;SDS011;13497;48.322;16.204;2023-05-07T12:16:57;3.33;;;1.95;;
25639;SDS011;13497;48.322;16.204;2023-05-07T12:19:28;3.20;;;2.25;;
25639;SDS011;13497;48.322;16.204;2023-05-07T12:21:54;2.72;;;1.73;;
25639;SDS011;13497;48.322;16.204;2023-05-07T12:24:21;4.35;;;1.83;;
25639;SDS011;13497;48.322;16.204;2023-05-07T12:26:47;3.55;;;2.30;;
25639;SDS011;13497;48.322;16.204;2023-05-07T12:29:14;4.65;;;1.95;;
25639;SDS011;13497;48.322;16.204;2023-05-07T12:31:40;4.65;;;2.15;;
25639;SDS011;13497;48.322;16.204;2023-05-07T12:34:06;2.67;;;1.75;;
25639;SDS011;13497;48.322;16.204;2023-05-07T12:36:39;1.92;;;1.75;;
25639;SDS011;13497;48.322;16.204;2023-05-07T12:39:08;5.07;;;1.80;;
25639;SDS011;13497;48.322;16.204;2023-05-07T12:44:21;1.52;;;1.33;;
25639;SDS011;13497;48.322;16.204;2023-05-07T12:46:53;3.53;;;1.92;;
25639;SDS011;13497;48.322;16.204;2023-05-07T12:49:19;2.10;;;1.88;;
25639;SDS011;13497;48.322;16.204;2023-05-07T12:51:46;3.00;;;1.67;;
25639;SDS011;13497;48.322;16.204;2023-05-07T12:54:13;2.33;;;1.80;;
25639;SDS011;13497;48.322;16.204;2023-05-07T12:56:39;2.50;;;1.70;;
25639;SDS011;13497;48.322;16.204;2023-05-07T12:59:05;2.33;;;1.55;;
25639;SDS011;13497;48.322;16.204;2023-05-07T13:01:31;2.08;;;1.38;;
25639;SDS011;13497;48.322;16.204;2023-05-07T13:04:02;4.32;;;2.15;;
25639;SDS011;13497;48.322;16.204;2023-05-07T13:06:29;1.77;;;1.40;;
25639;SDS011;13497;48.322;16.204;2023-05-07T13:08:56;3.08;;;2.03;;
25639;SDS011;13497;48.322;16.204;2023-05-07T13:11:22;1.48;;;1.33;;
25639;SDS011;13497;48.322;16.204;2023-05-07T13:13:48;1.55;;;1.45;;
25639;SDS011;13497;48.322;16.204;2023-05-07T13:16:13;1.95;;;1.25;;
25639;SDS011;13497;48.322;16.204;2023-05-07T13:18:39;2.95;;;1.27;;
25639;SDS011;13497;48.322;16.204;2023-05-07T13:21:05;3.30;;;1.52;;
25639;SDS011;13497;48.322;16.204;2023-05-07T13:23:31;4.20;;;1.85;;
25639;SDS011;13497;48.322;16.204;2023-05-07T13:25:57;3.23;;;1.40;;
25639;SDS011;13497;48.322;16.204;2023-05-07T13:28:23;2.25;;;1.75;;
25639;SDS011;13497;48.322;16.204;2023-05-07T13:30:50;1.70;;;1.35;;
25639;SDS011;13497;48.322;16.204;2023-05-07T13:33:17;2.38;;;1.27;;
25639;SDS011;13497;48.322;16.204;2023-05-07T13:35:43;2.53;;;1.92;;
25639;SDS011;13497;48.322;16.204;2023-05-07T13:38:09;2.22;;;1.52;;
25639;SDS011;13497;48.322;16.204;2023-05-07T13:40:35;2.67;;;2.03;;
25639;SDS011;13497;48.322;16.204;2023-05-07T13:43:00;3.17;;;1.38;;
25639;SDS011;13497;48.322;16.204;2023-05-07T13:45:29;2.08;;;1.52;;
25639;SDS011;13497;48.322;16.204;2023-05-07T13:47:55;3.38;;;1.17;;
25639;SDS011;13497;48.322;16.204;2023-05-07T13:50:21;2.72;;;1.58;;
25639;SDS011;13497;48.322;16.204;2023-05-07T13:52:47;1.15;;;1.05;;
25639;SDS011;13497;48.322;16.204;2023-05-07T13:55:19;2.53;;;1.50;;
25639;SDS011;13497;48.322;16.204;2023-05-07T13:57:46;4.82;;;1.67;;
25639;SDS011;13497;48.322;16.204;2023-05-07T14:02:38;1.33;;;1.10;;
25639;SDS011;13497;48.322;16.204;2023-05-07T14:05:04;3.90;;;1.58;;
25639;SDS011;13497;48.322;16.204;2023-05-07T14:07:30;1.77;;;1.33;;
25639;SDS011;13497;48.322;16.204;2023-05-07T14:09:56;6.05;;;1.27;;
25639;SDS011;13497;48.322;16.204;2023-05-07T14:12:22;6.03;;;1.60;;
25639;SDS011;13497;48.322;16.204;2023-05-07T14:14:48;2.25;;;1.23;;
25639;SDS011;13497;48.322;16.204;2023-05-07T14:17:15;2.35;;;1.20;;
25639;SDS011;13497;48.322;16.204;2023-05-07T14:19:44;1.42;;;1.30;;
25639;SDS011;13497;48.322;16.204;2023-05-07T14:22:09;2.33;;;1.50;;
25639;SDS011;13497;48.322;16.204;2023-05-07T14:24:35;2.20;;;1.10;;
25639;SDS011;13497;48.322;16.204;2023-05-07T14:27:01;2.63;;;1.38;;
25639;SDS011;13497;48.322;16.204;2023-05-07T14:29:28;1.25;;;0.80;;
25639;SDS011;13497;48.322;16.204;2023-05-07T14:31:53;2.55;;;1.30;;
25639;SDS011;13497;48.322;16.204;2023-05-07T14:34:19;1.40;;;0.97;;
25639;SDS011;13497;48.322;16.204;2023-05-07T14:36:45;1.23;;;1.10;;
25639;SDS011;13497;48.322;16.204;2023-05-07T14:39:10;1.40;;;1.30;;
25639;SDS011;13497;48.322;16.204;2023-05-07T14:41:36;2.75;;;0.90;;
25639;SDS011;13497;48.322;16.204;2023-05-07T14:44:02;1.63;;;0.95;;
25639;SDS011;13497;48.322;16.204;2023-05-07T14:46:29;1.10;;;0.88;;
25639;SDS011;13497;48.322;16.204;2023-05-07T14:48:56;2.05;;;1.00;;
25639;SDS011;13497;48.322;16.204;2023-05-07T14:51:22;2.42;;;1.23;;
25639;SDS011;13497;48.322;16.204;2023-05-07T14:53:49;0.82;;;0.82;;
25639;SDS011;13497;48.322;16.204;2023-05-07T14:56:15;1.48;;;0.80;;
25639;SDS011;13497;48.322;16.204;2023-05-07T14:58:41;2.38;;;0.90;;
25639;SDS011;13497;48.322;16.204;2023-05-07T15:01:08;1.45;;;1.00;;
25639;SDS011;13497;48.322;16.204;2023-05-07T15:03:34;1.83;;;0.82;;
25639;SDS011;13497;48.322;16.204;2023-05-07T15:05:59;1.80;;;0.90;;
25639;SDS011;13497;48.322;16.204;2023-05-07T15:08:25;1.45;;;1.02;;